createdAt,value
2023-12-27T00:01:43.448Z,101210.03
2023-12-27T00:04:10.586Z,101212.25
2023-12-27T00:06:37.471Z,101210.69
2023-12-27T00:09:04.630Z,101217.13
2023-12-27T00:11:31.554Z,101213.41
2023-12-27T00:13:58.324Z,101209.53
2023-12-27T00:16:25.236Z,101209.00
2023-12-27T00:18:52.064Z,101210.03
2023-12-27T00:21:18.925Z,101216.09
2023-12-27T00:23:45.723Z,101208.72
2023-12-27T00:26:12.576Z,101211.44
2023-12-27T00:28:40.049Z,101215.28
2023-12-27T00:31:06.840Z,101218.63
2023-12-27T00:33:33.860Z,101216.09
2023-12-27T00:36:00.701Z,101221.59
2023-12-27T00:38:27.524Z,101229.09
2023-12-27T00:40:54.135Z,101219.81
2023-12-27T00:43:20.774Z,101210.03
2023-12-27T00:45:47.370Z,101211.03
2023-12-27T00:48:14.061Z,101206.47
2023-12-27T00:50:41.786Z,101199.25
2023-12-27T00:53:08.679Z,101175.75
2023-12-27T00:55:35.338Z,101200.47
2023-12-27T00:58:02.148Z,101199.53
2023-12-27T01:00:28.880Z,101197.88
2023-12-27T01:02:55.674Z,101195.72
2023-12-27T01:05:22.474Z,101191.03
2023-12-27T01:07:49.102Z,101193.06
2023-12-27T01:10:17.132Z,101207.63
2023-12-27T01:12:43.740Z,101206.78
2023-12-27T01:15:10.707Z,101180.06
2023-12-27T01:17:37.345Z,101187.44
2023-12-27T01:20:07.589Z,101193.31
2023-12-27T01:22:34.185Z,101191.16
2023-12-27T01:25:00.738Z,101188.47
2023-12-27T01:27:27.404Z,101189.84
2023-12-27T01:29:54.923Z,101183.78
2023-12-27T01:32:22.637Z,101178.19
2023-12-27T01:34:49.615Z,101181.56
2023-12-27T01:37:16.297Z,101170.63
2023-12-27T01:39:43.013Z,101167.34
2023-12-27T01:42:09.697Z,101162.81
2023-12-27T01:44:37.190Z,101171.56
2023-12-27T01:47:06.300Z,101179.13
2023-12-27T01:49:33.141Z,101174.09
2023-12-27T01:51:59.820Z,101188.75
2023-12-27T01:54:26.661Z,101193.13
2023-12-27T01:56:53.730Z,101195.84
2023-12-27T01:59:20.311Z,101192.97
2023-12-27T02:01:46.900Z,101195.84
2023-12-27T02:04:13.770Z,101187.09
2023-12-27T02:06:41.179Z,101196.50
2023-12-27T02:09:07.898Z,101181.69
2023-12-27T02:11:34.654Z,101194.16
2023-12-27T02:14:01.671Z,101186.91
2023-12-27T02:16:28.769Z,101194.47
2023-12-27T02:18:55.602Z,101192.78
2023-12-27T02:21:23.170Z,101185.88
2023-12-27T02:23:53.169Z,101179.66
2023-12-27T02:26:20.752Z,101169.22
2023-12-27T02:28:47.423Z,101178.66
2023-12-27T02:31:14.520Z,101168.94
2023-12-27T02:33:42.814Z,101182.75
2023-12-27T02:36:09.705Z,101169.47
2023-12-27T02:38:36.343Z,101174.16
2023-12-27T02:41:04.619Z,101161.94
2023-12-27T02:43:31.271Z,101158.16
2023-12-27T02:45:58.597Z,101144.50
2023-12-27T02:48:25.513Z,101105.41
2023-12-27T02:50:52.414Z,101124.56
2023-12-27T02:53:19.211Z,101123.19
2023-12-27T02:55:46.228Z,101123.28
2023-12-27T02:58:13.605Z,101097.91
2023-12-27T03:00:41.173Z,101085.75
2023-12-27T03:03:08.070Z,101100.22
2023-12-27T03:05:34.875Z,101116.75
2023-12-27T03:08:01.905Z,101113.66
2023-12-27T03:10:28.693Z,101092.78
2023-12-27T03:12:56.211Z,101093.25
2023-12-27T03:15:25.068Z,101110.13
2023-12-27T03:17:52.024Z,101110.59
2023-12-27T03:20:25.440Z,101115.81
2023-12-27T03:22:52.280Z,101118.63
2023-12-27T03:25:18.908Z,101124.97
2023-12-27T03:27:45.532Z,101119.56
2023-12-27T03:30:13.149Z,101118.19
2023-12-27T03:32:43.441Z,101116.31
2023-12-27T03:35:10.291Z,101115.47
2023-12-27T03:37:37.080Z,101099.41
2023-12-27T03:40:07.159Z,101098.22
2023-12-27T03:42:33.994Z,101095.50
2023-12-27T03:45:07.425Z,101101.75
2023-12-27T03:47:34.157Z,101104.28
2023-12-27T03:50:03.578Z,101098.84
2023-12-27T03:52:31.022Z,101089.44
2023-12-27T03:54:57.944Z,101080.66
2023-12-27T03:57:24.939Z,101079.44
2023-12-27T03:59:51.867Z,101086.34
2023-12-27T04:02:18.736Z,101073.22
2023-12-27T04:04:47.875Z,101062.94
2023-12-27T04:07:15.139Z,101070.50
2023-12-27T04:09:42.431Z,101077.66
2023-12-27T04:12:09.487Z,101067.31
2023-12-27T04:14:36.778Z,101060.88
2023-12-27T04:17:05.393Z,101054.63
2023-12-27T04:19:32.125Z,101056.50
2023-12-27T04:21:58.890Z,101040.19
2023-12-27T04:24:26.371Z,101056.13
2023-12-27T04:26:53.102Z,101051.94
2023-12-27T04:29:19.976Z,101068.25
2023-12-27T04:31:46.933Z,101053.69
2023-12-27T04:34:13.723Z,101048.63
2023-12-27T04:36:47.852Z,101038.47
2023-12-27T04:39:14.872Z,101032.03
2023-12-27T04:41:42.888Z,101030.81
2023-12-27T04:44:10.537Z,101031.94
2023-12-27T04:46:40.402Z,101022.13
2023-12-27T04:49:07.549Z,101034.09
2023-12-27T04:51:34.205Z,101031.81
2023-12-27T04:54:00.774Z,101017.63
2023-12-27T04:56:27.421Z,101022.19
2023-12-27T04:58:54.175Z,101037.31
2023-12-27T05:01:21.369Z,101035.84
2023-12-27T05:03:48.336Z,101035.25
2023-12-27T05:06:15.271Z,101021.44
2023-12-27T05:08:42.894Z,101024.91
2023-12-27T05:11:13.426Z,101028.06
2023-12-27T05:13:41.384Z,101032.41
2023-12-27T05:16:17.425Z,101043.25
2023-12-27T05:18:46.217Z,101044.09
2023-12-27T05:21:14.982Z,101049.53
2023-12-27T05:23:41.583Z,101050.19
2023-12-27T05:26:08.408Z,101031.13
2023-12-27T05:28:36.599Z,101036.66
2023-12-27T05:31:03.337Z,101029.16
2023-12-27T05:33:31.404Z,101010.84
2023-12-27T05:35:58.683Z,101003.38
2023-12-27T05:38:25.494Z,101017.16
2023-12-27T05:40:52.231Z,101010.91
2023-12-27T05:43:20.224Z,101007.00
2023-12-27T05:45:46.838Z,100997.19
2023-12-27T05:48:13.672Z,100999.69
2023-12-27T05:50:40.502Z,100989.44
2023-12-27T05:53:07.161Z,100990.09
2023-12-27T05:55:34.023Z,100998.47
2023-12-27T05:58:01.169Z,101008.72
2023-12-27T06:00:27.989Z,101002.00
2023-12-27T06:02:54.923Z,100998.47
2023-12-27T06:05:25.553Z,101002.72
2023-12-27T06:07:52.633Z,100994.59
2023-12-27T06:10:19.267Z,100990.22
2023-12-27T06:12:50.415Z,100985.81
2023-12-27T06:15:17.146Z,100976.00
2023-12-27T06:17:44.433Z,100976.91
2023-12-27T06:20:11.736Z,100974.97
2023-12-27T06:22:41.981Z,100974.97
2023-12-27T06:25:09.894Z,100939.09
2023-12-27T06:27:37.739Z,100946.75
2023-12-27T06:30:13.468Z,100936.28
2023-12-27T06:32:41.910Z,100926.28
2023-12-27T06:35:08.814Z,100936.00
2023-12-27T06:37:39.507Z,100934.53
2023-12-27T06:40:08.006Z,100936.03
2023-12-27T06:42:38.582Z,100914.25
2023-12-27T06:45:10.680Z,100944.00
2023-12-27T06:50:18.868Z,100926.06
2023-12-27T06:55:28.584Z,100922.81
2023-12-27T06:57:57.277Z,100915.31
2023-12-27T07:00:24.218Z,100911.13
2023-12-27T07:02:58.746Z,100929.38
2023-12-27T07:08:22.291Z,100866.06
2023-12-27T07:14:03.036Z,100881.16
2023-12-27T07:16:31.938Z,100871.97
2023-12-27T07:21:51.015Z,100855.25
2023-12-27T07:24:18.392Z,100901.31
2023-12-27T07:26:45.536Z,100889.34
2023-12-27T07:29:12.972Z,100883.31
2023-12-27T07:31:39.775Z,100881.22
2023-12-27T07:34:06.833Z,100874.97
2023-12-27T07:36:34.770Z,100860.34
2023-12-27T07:39:01.895Z,100848.22
2023-12-27T07:41:28.737Z,100854.91
2023-12-27T07:43:55.578Z,100853.47
2023-12-27T07:46:22.442Z,100869.78
2023-12-27T07:48:51.112Z,100877.94
2023-12-27T07:51:19.185Z,100874.41
2023-12-27T07:53:46.147Z,100890.06
2023-12-27T07:56:13.935Z,100907.63
2023-12-27T07:58:40.758Z,100878.81
2023-12-27T08:01:08.126Z,100882.56
2023-12-27T08:03:36.392Z,100882.97
2023-12-27T08:06:03.490Z,100882.97
2023-12-27T08:08:30.332Z,100866.28
2023-12-27T08:10:57.889Z,100881.75
2023-12-27T08:13:24.729Z,100896.78
2023-12-27T08:15:52.584Z,100903.88
2023-12-27T08:18:20.185Z,100877.13
2023-12-27T08:20:47.052Z,100898.88
2023-12-27T08:23:15.097Z,100893.44
2023-12-27T08:25:41.867Z,100879.69
2023-12-27T08:28:09.709Z,100904.75
2023-12-27T08:30:36.966Z,100865.84
2023-12-27T08:33:12.793Z,100892.22
2023-12-27T08:35:39.898Z,100870.47
2023-12-27T08:38:07.053Z,100870.06
2023-12-27T08:40:34.019Z,100856.66
2023-12-27T08:43:00.751Z,100903.50
2023-12-27T08:45:31.319Z,100869.19
2023-12-27T08:47:59.319Z,100863.78
2023-12-27T08:50:26.368Z,100859.16
2023-12-27T08:52:53.342Z,100869.59
2023-12-27T08:55:27.077Z,100862.69
2023-12-27T08:57:54.483Z,100882.13
2023-12-27T09:00:23.081Z,100849.97
2023-12-27T09:02:49.911Z,100854.97
2023-12-27T09:05:16.973Z,100837.81
2023-12-27T09:07:43.885Z,100851.16
2023-12-27T09:10:12.013Z,100862.00
2023-12-27T09:12:43.658Z,100850.50
2023-12-27T09:15:14.016Z,100834.03
2023-12-27T09:17:40.976Z,100848.63
2023-12-27T09:20:09.711Z,100869.50
2023-12-27T09:22:38.007Z,100849.03
2023-12-27T09:25:07.812Z,100853.63
2023-12-27T09:27:37.722Z,100839.81
2023-12-27T09:30:06.161Z,100826.00
2023-12-27T09:32:33.538Z,100840.63
2023-12-27T09:35:00.466Z,100838.97
2023-12-27T09:37:27.290Z,100860.22
2023-12-27T09:39:54.179Z,100844.41
2023-12-27T09:42:20.917Z,100867.97
2023-12-27T09:44:49.722Z,100828.09
2023-12-27T09:47:17.566Z,100854.78
2023-12-27T09:49:46.647Z,100821.13
2023-12-27T09:52:15.652Z,100867.41
2023-12-27T09:54:42.522Z,100819.75
2023-12-27T09:57:10.016Z,100855.38
2023-12-27T09:59:42.367Z,100829.47
2023-12-27T10:02:16.780Z,100830.25
2023-12-27T10:05:12.685Z,100802.69
2023-12-27T10:07:42.354Z,100803.00
2023-12-27T10:10:20.441Z,100807.13
2023-12-27T10:12:53.250Z,100804.38
2023-12-27T10:15:20.989Z,100818.72
2023-12-27T10:17:48.716Z,100774.84
2023-12-27T10:20:32.285Z,100814.84
2023-12-27T10:23:00.243Z,100821.06
2023-12-27T10:25:30.087Z,100816.84
2023-12-27T10:27:57.693Z,100821.00
2023-12-27T10:30:24.852Z,100810.47
2023-12-27T10:32:58.264Z,100817.91
2023-12-27T10:35:25.165Z,100808.91
2023-12-27T10:38:02.192Z,100815.38
2023-12-27T10:40:29.251Z,100789.38
2023-12-27T10:42:55.844Z,100780.97
2023-12-27T10:45:22.846Z,100779.31
2023-12-27T10:47:50.631Z,100766.44
2023-12-27T10:50:32.059Z,100757.88
2023-12-27T10:53:04.901Z,100758.53
2023-12-27T10:55:34.541Z,100722.19
2023-12-27T10:58:04.542Z,100709.69
2023-12-27T11:00:32.535Z,100708.56
2023-12-27T11:03:01.234Z,100704.63
2023-12-27T11:05:30.572Z,100752.13
2023-12-27T11:07:58.373Z,100719.59
2023-12-27T11:10:29.312Z,100732.03
2023-12-27T11:13:01.342Z,100686.28
2023-12-27T11:15:31.480Z,100697.63
2023-12-27T11:18:02.778Z,100688.47
2023-12-27T11:20:31.238Z,100697.28
2023-12-27T11:22:58.727Z,100714.06
2023-12-27T11:25:26.335Z,100711.25
2023-12-27T11:28:00.054Z,100715.44
2023-12-27T11:30:28.327Z,100691.84
2023-12-27T11:32:55.687Z,100722.47
2023-12-27T11:35:34.566Z,100690.34
2023-12-27T11:38:23.220Z,100716.56
2023-12-27T11:40:53.878Z,100706.47
2023-12-27T11:43:22.432Z,100721.91
2023-12-27T11:46:10.652Z,100725.16
2023-12-27T11:48:38.016Z,100716.13
2023-12-27T11:51:26.455Z,100683.81
2023-12-27T11:53:57.345Z,100666.38
2023-12-27T11:56:30.060Z,100647.97
2023-12-27T12:01:40.391Z,100641.22
2023-12-27T12:04:52.612Z,100662.75
2023-12-27T12:07:45.970Z,100659.56
2023-12-27T12:10:22.586Z,100665.16
2023-12-27T12:12:51.029Z,100613.22
2023-12-27T12:15:21.754Z,100614.56
2023-12-27T12:20:32.236Z,100628.59
2023-12-27T12:23:01.132Z,100635.97
2023-12-27T12:25:28.187Z,100634.91
2023-12-27T12:27:55.073Z,100626.94
2023-12-27T12:30:24.928Z,100611.97
2023-12-27T12:32:52.192Z,100623.72
2023-12-27T12:35:19.017Z,100622.19
2023-12-27T12:37:45.965Z,100625.50
2023-12-27T12:40:15.858Z,100621.72
2023-12-27T12:42:44.636Z,100607.00
2023-12-27T12:45:12.149Z,100608.63
2023-12-27T12:47:39.930Z,100601.38
2023-12-27T12:52:56.069Z,100577.75
2023-12-27T12:55:30.433Z,100581.44
2023-12-27T12:58:05.442Z,100577.41
2023-12-27T13:00:35.782Z,100577.03
2023-12-27T13:03:07.812Z,100576.59
2023-12-27T13:05:35.259Z,100577.03
2023-12-27T13:08:08.353Z,100561.59
2023-12-27T13:10:39.197Z,100562.56
2023-12-27T13:13:05.857Z,100573.03
2023-12-27T13:15:39.920Z,100575.97
2023-12-27T13:18:13.715Z,100570.41
2023-12-27T13:20:41.321Z,100580.25
2023-12-27T13:23:08.425Z,100565.19
2023-12-27T13:25:35.405Z,100566.59
2023-12-27T13:28:11.820Z,100561.38
2023-12-27T13:30:39.259Z,100557.34
2023-12-27T13:33:07.312Z,100560.31
2023-12-27T13:35:38.624Z,100570.16
2023-12-27T13:38:09.465Z,100553.31
2023-12-27T13:40:36.302Z,100566.03
2023-12-27T13:48:32.405Z,100529.09
2023-12-27T13:53:43.376Z,100541.69
2023-12-27T14:09:41.951Z,100513.53
2023-12-27T14:17:41.095Z,100521.94
2023-12-27T14:22:55.968Z,100517.75
2023-12-27T14:25:23.121Z,100514.06
2023-12-27T14:27:56.843Z,100496.97
2023-12-27T14:30:27.596Z,100484.03
2023-12-27T14:35:38.146Z,100472.31
2023-12-27T14:38:07.836Z,100471.72
2023-12-27T14:40:39.238Z,100464.94
2023-12-27T14:43:15.148Z,100471.72
2023-12-27T14:45:42.806Z,100461.13
2023-12-27T14:48:09.707Z,100459.00
2023-12-27T14:50:36.922Z,100456.75
2023-12-27T14:53:07.292Z,100446.78
2023-12-27T15:01:02.523Z,100461.63
2023-12-27T15:03:30.831Z,100452.09
2023-12-27T15:06:02.408Z,100439.41
2023-12-27T15:08:29.075Z,100443.81
2023-12-27T15:10:57.358Z,100449.25
2023-12-27T15:13:24.699Z,100446.41
2023-12-27T15:15:51.546Z,100444.13
2023-12-27T15:18:22.201Z,100446.97
2023-12-27T15:20:50.354Z,100432.81
2023-12-27T15:23:25.163Z,100446.00
2023-12-27T15:25:52.037Z,100450.59
2023-12-27T15:28:27.778Z,100443.72
2023-12-27T15:30:55.468Z,100449.66
2023-12-27T15:33:23.140Z,100434.81
2023-12-27T15:35:50.722Z,100429.72
2023-12-27T15:38:18.292Z,100422.59
2023-12-27T15:40:46.640Z,100417.16
2023-12-27T15:43:14.697Z,100413.81
2023-12-27T15:45:42.506Z,100407.19
2023-12-27T15:48:12.769Z,100415.47
2023-12-27T15:50:45.400Z,100403.84
2023-12-27T15:53:19.976Z,100403.84
2023-12-27T15:55:50.268Z,100394.25
2023-12-27T16:00:59.976Z,100388.31
2023-12-27T16:03:27.000Z,100384.34
2023-12-27T16:06:03.728Z,100394.13
2023-12-27T16:08:34.798Z,100386.03
2023-12-27T16:11:09.149Z,100382.72
2023-12-27T16:13:39.249Z,100372.50
2023-12-27T16:16:10.158Z,100380.56
2023-12-27T16:18:38.462Z,100372.28
2023-12-27T16:23:57.066Z,100358.75
2023-12-27T16:26:27.651Z,100349.00
2023-12-27T16:28:54.643Z,100334.06
2023-12-27T16:31:22.843Z,100360.50
2023-12-27T16:33:55.673Z,100344.97
2023-12-27T16:36:22.587Z,100341.63
2023-12-27T16:38:59.492Z,100345.53
2023-12-27T16:41:28.553Z,100342.25
2023-12-27T16:43:58.523Z,100339.53
2023-12-27T16:46:25.393Z,100332.13
2023-12-27T16:48:57.492Z,100332.84
2023-12-27T16:51:27.627Z,100322.44
2023-12-27T16:53:59.444Z,100328.81
2023-12-27T16:56:44.311Z,100327.59
2023-12-27T16:59:11.244Z,100291.06
2023-12-27T17:01:37.961Z,100317.63
2023-12-27T17:04:11.144Z,100284.31
2023-12-27T17:06:41.671Z,100305.78
2023-12-27T17:09:09.704Z,100274.34
2023-12-27T17:11:36.548Z,100269.25
2023-12-27T17:14:03.325Z,100270.06
2023-12-27T17:16:30.493Z,100286.00
2023-12-27T17:18:57.676Z,100254.34
2023-12-27T17:21:24.995Z,100300.78
2023-12-27T17:23:52.044Z,100292.72
2023-12-27T17:26:19.521Z,100301.50
2023-12-27T17:28:46.343Z,100302.84
2023-12-27T17:31:13.271Z,100310.38
2023-12-27T17:33:40.628Z,100304.41
2023-12-27T17:36:08.032Z,100294.44
2023-12-27T17:38:35.432Z,100273.72
2023-12-27T17:41:02.991Z,100277.84
2023-12-27T17:43:30.822Z,100278.91
2023-12-27T17:45:59.363Z,100276.84
2023-12-27T17:48:26.310Z,100270.59
2023-12-27T17:50:53.368Z,100249.38
2023-12-27T17:53:22.763Z,100243.72
2023-12-27T17:55:51.985Z,100245.38
2023-12-27T17:58:18.996Z,100248.19
2023-12-27T18:00:47.278Z,100244.63
2023-12-27T18:03:17.225Z,100229.38
2023-12-27T18:05:45.188Z,100226.06
2023-12-27T18:08:13.047Z,100223.88
2023-12-27T18:10:39.941Z,100240.56
2023-12-27T18:13:07.525Z,100221.00
2023-12-27T18:15:35.440Z,100235.13
2023-12-27T18:18:02.376Z,100245.53
2023-12-27T18:20:29.339Z,100252.63
2023-12-27T18:22:56.286Z,100235.56
2023-12-27T18:25:23.407Z,100249.03
2023-12-27T18:27:50.683Z,100233.38
2023-12-27T18:30:17.647Z,100240.56
2023-12-27T18:32:45.645Z,100253.41
2023-12-27T18:35:12.728Z,100245.53
2023-12-27T18:37:41.852Z,100269.97
2023-12-27T18:40:09.053Z,100248.56
2023-12-27T18:42:36.008Z,100264.78
2023-12-27T18:45:02.925Z,100266.84
2023-12-27T18:47:29.620Z,100275.81
2023-12-27T18:49:56.515Z,100265.41
2023-12-27T18:52:23.595Z,100260.34
2023-12-27T18:54:54.719Z,100226.22
2023-12-27T18:57:23.282Z,100247.19
2023-12-27T18:59:55.131Z,100244.09
2023-12-27T19:02:24.427Z,100225.94
2023-12-27T19:04:56.701Z,100225.03
2023-12-27T19:07:23.402Z,100216.25
2023-12-27T19:09:50.155Z,100231.66
2023-12-27T19:12:17.690Z,100238.31
2023-12-27T19:14:44.785Z,100210.22
2023-12-27T19:17:15.429Z,100190.75
2023-12-27T19:19:49.394Z,100184.88
2023-12-27T19:33:01.487Z,100169.66
2023-12-27T19:35:33.717Z,100132.28
2023-12-27T19:38:03.185Z,100149.09
2023-12-27T19:40:38.112Z,100163.00
2023-12-27T19:43:06.240Z,100149.72
2023-12-27T19:45:34.315Z,100146.69
2023-12-27T19:48:03.087Z,100143.91
2023-12-27T19:50:30.113Z,100130.69
2023-12-27T19:52:56.836Z,100131.91
2023-12-27T19:55:23.979Z,100120.28
2023-12-27T19:57:58.531Z,100099.47
2023-12-27T20:00:26.359Z,100099.47
2023-12-27T20:02:57.304Z,100101.56
2023-12-27T20:05:31.434Z,100105.84
2023-12-27T20:07:59.483Z,100111.47
2023-12-27T20:10:26.404Z,100108.28
2023-12-27T20:12:53.670Z,100094.31
2023-12-27T20:15:29.654Z,100132.34
2023-12-27T20:17:57.284Z,100122.38
2023-12-27T20:20:25.208Z,100132.94
2023-12-27T20:22:52.904Z,100129.78
2023-12-27T20:25:27.216Z,100133.53
2023-12-27T20:27:54.432Z,100149.97
2023-12-27T20:30:21.808Z,100170.69
2023-12-27T20:32:50.940Z,100167.16
2023-12-27T20:35:17.875Z,100166.91
2023-12-27T20:37:46.991Z,100180.56
2023-12-27T20:40:15.360Z,100179.28
2023-12-27T20:42:42.242Z,100170.06
2023-12-27T20:45:10.406Z,100153.47
2023-12-27T20:47:38.181Z,100159.78
2023-12-27T20:50:05.481Z,100168.22
2023-12-27T20:52:32.982Z,100164.19
2023-12-27T20:55:02.023Z,100147.84
2023-12-27T20:57:32.811Z,100176.75
2023-12-27T20:59:59.773Z,100178.63
2023-12-27T21:02:28.174Z,100181.63
2023-12-27T21:04:58.463Z,100180.56
2023-12-27T21:07:25.912Z,100161.91
2023-12-27T21:09:55.788Z,100179.16
2023-12-27T21:12:23.046Z,100163.31
2023-12-27T21:14:51.143Z,100186.75
2023-12-27T21:17:17.913Z,100174.66
2023-12-27T21:19:45.652Z,100178.44
2023-12-27T21:22:14.646Z,100170.63
2023-12-27T21:27:33.943Z,100175.25
2023-12-27T21:35:28.150Z,100169.63
2023-12-27T21:37:55.252Z,100163.94
2023-12-27T21:40:22.202Z,100141.34
2023-12-27T21:42:49.084Z,100145.38
2023-12-27T21:45:17.314Z,100159.13
2023-12-27T21:47:44.236Z,100135.94
2023-12-27T21:50:12.499Z,100146.47
2023-12-27T21:52:40.632Z,100133.22
2023-12-27T21:55:09.882Z,100149.41
2023-12-27T21:57:36.651Z,100166.00
2023-12-27T22:00:05.925Z,100162.22
2023-12-27T22:02:33.723Z,100168.84
2023-12-27T22:05:02.343Z,100176.88
2023-12-27T22:07:29.000Z,100180.13
2023-12-27T22:09:57.308Z,100199.38
2023-12-27T22:12:24.115Z,100196.22
2023-12-27T22:14:55.155Z,100208.88
2023-12-27T22:17:25.159Z,100200.09
2023-12-27T22:19:55.521Z,100213.50
2023-12-27T22:22:29.321Z,100203.31
2023-12-27T22:24:56.059Z,100195.50
2023-12-27T22:27:22.934Z,100207.34
2023-12-27T22:29:49.921Z,100206.91
2023-12-27T22:32:16.668Z,100207.81
2023-12-27T22:34:45.215Z,100185.09
2023-12-27T22:37:12.384Z,100181.53
2023-12-27T22:39:39.614Z,100189.94
2023-12-27T22:42:06.454Z,100174.06
2023-12-27T22:44:34.409Z,100207.81
2023-12-27T22:47:01.091Z,100206.41
2023-12-27T22:49:31.720Z,100215.75
2023-12-27T22:51:59.996Z,100202.03
2023-12-27T22:57:08.742Z,100175.38
2023-12-27T22:59:37.698Z,100180.72
2023-12-27T23:02:06.946Z,100205.56
2023-12-27T23:04:34.233Z,100159.03
2023-12-27T23:07:02.095Z,100185.22
2023-12-27T23:09:29.145Z,100195.63
2023-12-27T23:11:57.087Z,100178.09
2023-12-27T23:14:28.368Z,100168.16
2023-12-27T23:16:56.107Z,100177.59
2023-12-27T23:19:26.090Z,100174.88
2023-12-27T23:21:53.149Z,100197.28
2023-12-27T23:24:20.000Z,100207.59
2023-12-27T23:26:46.713Z,100240.41
2023-12-27T23:29:15.622Z,100222.03
2023-12-27T23:31:42.586Z,100227.72
2023-12-27T23:34:09.493Z,100204.25
2023-12-27T23:36:37.274Z,100214.81
2023-12-27T23:39:07.014Z,100225.22
2023-12-27T23:41:34.001Z,100230.19
2023-12-27T23:44:00.733Z,100249.50
2023-12-27T23:46:27.405Z,100252.00
2023-12-27T23:48:54.177Z,100260.28
2023-12-27T23:51:21.169Z,100257.91
2023-12-27T23:53:48.144Z,100257.81
2023-12-27T23:56:17.150Z,100245.09
2023-12-27T23:59:00.453Z,100240.16
